createdAt,value
2022-12-07T00:00:20.948Z,23.30
2022-12-07T00:00:53.689Z,17.00
2022-12-07T00:01:30.005Z,23.92
2022-12-07T00:02:02.352Z,27.52
2022-12-07T00:02:34.807Z,24.05
2022-12-07T00:03:07.480Z,27.70
2022-12-07T00:03:40.492Z,24.17
2022-12-07T00:04:14.346Z,25.40
2022-12-07T00:04:46.701Z,26.02
2022-12-07T00:05:19.082Z,25.30
2022-12-07T00:05:51.557Z,25.67
2022-12-07T00:06:24.326Z,32.20
2022-12-07T00:06:56.588Z,28.58
2022-12-07T00:07:29.246Z,26.30
2022-12-07T00:08:01.536Z,27.63
2022-12-07T00:08:34.451Z,20.67
2022-12-07T00:09:07.710Z,24.65
2022-12-07T00:09:40.243Z,27.27
2022-12-07T00:10:12.632Z,23.92
2022-12-07T00:10:44.992Z,18.92
2022-12-07T00:11:18.942Z,28.83
2022-12-07T00:11:52.111Z,22.05
2022-12-07T00:12:24.443Z,19.40
2022-12-07T00:12:56.725Z,20.05
2022-12-07T00:13:28.984Z,21.75
2022-12-07T00:14:02.495Z,28.13
2022-12-07T00:14:34.790Z,20.50
2022-12-07T00:15:07.740Z,26.17
2022-12-07T00:15:40.074Z,30.73
2022-12-07T00:16:13.748Z,26.27
2022-12-07T00:16:46.204Z,30.27
2022-12-07T00:17:18.636Z,27.08
2022-12-07T00:17:50.872Z,23.40
2022-12-07T00:18:23.619Z,20.83
2022-12-07T00:18:56.019Z,23.98
2022-12-07T00:19:28.458Z,22.35
2022-12-07T00:20:01.212Z,22.75
2022-12-07T00:20:34.422Z,33.58
2022-12-07T00:21:16.651Z,26.20
2022-12-07T00:21:49.161Z,29.27
2022-12-07T00:22:21.557Z,31.98
2022-12-07T00:22:54.009Z,24.75
2022-12-07T00:23:26.497Z,28.55
2022-12-07T00:23:58.919Z,22.35
2022-12-07T00:24:31.369Z,23.88
2022-12-07T00:25:03.741Z,21.63
2022-12-07T00:25:36.500Z,22.27
2022-12-07T00:26:14.634Z,27.98
2022-12-07T00:26:48.586Z,22.02
2022-12-07T00:28:10.323Z,27.92
2022-12-07T00:28:48.058Z,23.77
2022-12-07T00:29:22.777Z,19.05
2022-12-07T00:29:55.065Z,26.48
2022-12-07T00:30:27.458Z,21.73
2022-12-07T00:31:04.515Z,23.25
2022-12-07T00:31:40.300Z,26.13
2022-12-07T00:32:13.069Z,23.83
2022-12-07T00:32:45.777Z,24.55
2022-12-07T00:33:18.046Z,21.95
2022-12-07T00:33:50.594Z,21.17
2022-12-07T00:34:23.455Z,30.60
2022-12-07T00:34:55.719Z,27.17
2022-12-07T00:35:28.144Z,25.30
2022-12-07T00:36:01.030Z,24.48
2022-12-07T00:36:33.703Z,20.33
2022-12-07T00:37:06.325Z,27.27
2022-12-07T00:37:38.737Z,24.40
2022-12-07T00:38:11.112Z,27.85
2022-12-07T00:38:43.583Z,25.00
2022-12-07T00:39:16.542Z,20.67
2022-12-07T00:39:49.099Z,21.48
2022-12-07T00:40:21.524Z,20.55
2022-12-07T00:40:58.087Z,19.33
2022-12-07T00:41:30.990Z,12.15
2022-12-07T00:42:03.335Z,16.58
2022-12-07T00:42:35.590Z,19.42
2022-12-07T00:43:07.917Z,26.20
2022-12-07T00:43:41.290Z,27.15
2022-12-07T00:44:13.840Z,24.92
2022-12-07T00:44:46.075Z,19.20
2022-12-07T00:45:18.825Z,30.02
2022-12-07T00:45:51.201Z,18.75
2022-12-07T00:46:24.220Z,25.77
2022-12-07T00:46:56.923Z,21.55
2022-12-07T00:47:29.407Z,21.88
2022-12-07T00:48:01.610Z,25.92
2022-12-07T00:48:33.991Z,25.33
2022-12-07T00:49:06.217Z,19.58
2022-12-07T00:49:38.411Z,24.65
2022-12-07T00:50:10.996Z,18.90
2022-12-07T00:50:43.517Z,20.65
2022-12-07T00:51:16.766Z,23.30
2022-12-07T00:51:49.453Z,24.80
2022-12-07T00:52:21.793Z,22.60
2022-12-07T00:52:54.154Z,20.25
2022-12-07T00:53:28.270Z,13.60
2022-12-07T00:54:00.599Z,13.65
2022-12-07T00:54:32.961Z,21.65
2022-12-07T00:55:05.433Z,20.60
2022-12-07T00:55:38.283Z,23.90
2022-12-07T00:56:13.294Z,37.72
2022-12-07T00:56:45.715Z,26.42
2022-12-07T00:57:18.029Z,29.67
2022-12-07T00:57:50.275Z,38.72
2022-12-07T00:58:22.981Z,34.03
2022-12-07T00:58:56.995Z,28.05
2022-12-07T00:59:29.287Z,26.17
2022-12-07T01:00:01.984Z,20.60
2022-12-07T01:00:35.846Z,22.42
2022-12-07T01:01:08.932Z,21.70
2022-12-07T01:01:41.320Z,23.38
2022-12-07T01:02:17.907Z,23.65
2022-12-07T01:02:50.226Z,25.88
2022-12-07T01:03:22.678Z,17.65
2022-12-07T01:03:55.161Z,24.52
2022-12-07T01:04:27.351Z,13.18
2022-12-07T01:04:59.614Z,19.23
2022-12-07T01:05:31.885Z,21.90
2022-12-07T01:06:04.288Z,18.38
2022-12-07T01:06:36.647Z,16.88
2022-12-07T01:07:08.961Z,15.25
2022-12-07T01:07:41.321Z,15.85
2022-12-07T01:08:13.761Z,17.90
2022-12-07T01:08:46.587Z,23.33
2022-12-07T01:09:18.870Z,25.58
2022-12-07T01:09:51.124Z,23.23
2022-12-07T01:10:23.452Z,17.75
2022-12-07T01:10:59.033Z,18.77
2022-12-07T01:11:31.277Z,11.50
2022-12-07T01:12:03.975Z,26.45
2022-12-07T01:12:36.365Z,22.00
2022-12-07T01:13:08.579Z,16.13
2022-12-07T01:13:41.022Z,19.02
2022-12-07T01:14:13.302Z,26.17
2022-12-07T01:14:45.573Z,14.85
2022-12-07T01:15:17.746Z,14.77
2022-12-07T01:15:49.931Z,21.13
2022-12-07T01:16:26.449Z,16.80
2022-12-07T01:16:58.870Z,19.25
2022-12-07T01:17:31.360Z,15.00
2022-12-07T01:18:03.611Z,23.50
2022-12-07T01:18:36.788Z,21.88
2022-12-07T01:19:08.964Z,16.30
2022-12-07T01:19:41.257Z,16.95
2022-12-07T01:20:13.937Z,22.63
2022-12-07T01:20:46.228Z,22.52
2022-12-07T01:21:22.287Z,18.83
2022-12-07T01:21:54.619Z,23.38
2022-12-07T01:22:27.178Z,22.42
2022-12-07T01:22:59.509Z,24.15
2022-12-07T01:23:31.920Z,18.73
2022-12-07T01:24:05.622Z,21.08
2022-12-07T01:24:37.947Z,23.30
2022-12-07T01:25:10.954Z,19.17
2022-12-07T01:25:43.260Z,22.88
2022-12-07T01:26:17.081Z,12.77
2022-12-07T01:26:50.200Z,19.33
2022-12-07T01:27:22.641Z,18.13
2022-12-07T01:27:55.112Z,15.85
2022-12-07T01:28:27.664Z,19.65
2022-12-07T01:29:02.086Z,17.38
2022-12-07T01:29:34.499Z,18.80
2022-12-07T01:30:07.735Z,17.92
2022-12-07T01:30:40.146Z,19.40
2022-12-07T01:31:16.110Z,19.90
2022-12-07T01:31:49.919Z,17.15
2022-12-07T01:32:22.291Z,19.60
2022-12-07T01:32:54.796Z,19.67
2022-12-07T01:33:31.066Z,18.02
2022-12-07T01:34:03.723Z,18.75
2022-12-07T01:34:36.239Z,17.35
2022-12-07T01:35:08.849Z,18.05
2022-12-07T01:35:41.342Z,19.45
2022-12-07T01:36:24.020Z,17.27
2022-12-07T01:36:56.250Z,19.52
2022-12-07T01:37:28.446Z,20.10
2022-12-07T01:38:00.786Z,17.98
2022-12-07T01:38:33.917Z,19.45
2022-12-07T01:39:07.906Z,16.48
2022-12-07T01:39:40.332Z,17.80
2022-12-07T01:40:12.890Z,17.13
2022-12-07T01:40:45.483Z,14.68
2022-12-07T01:41:17.757Z,16.70
2022-12-07T01:41:50.229Z,18.17
2022-12-07T01:42:22.495Z,16.70
2022-12-07T01:42:54.695Z,17.40
2022-12-07T01:43:27.465Z,18.17
2022-12-07T01:44:17.889Z,19.02
2022-12-07T01:45:08.480Z,17.70
2022-12-07T01:45:42.424Z,14.93
2022-12-07T01:46:15.071Z,19.23
2022-12-07T01:46:49.217Z,17.67
2022-12-07T01:47:21.575Z,17.40
2022-12-07T01:47:55.975Z,17.83
2022-12-07T01:48:36.988Z,18.13
2022-12-07T01:49:11.314Z,11.63
2022-12-07T01:49:49.596Z,17.58
2022-12-07T01:50:22.791Z,18.88
2022-12-07T01:50:57.132Z,14.93
2022-12-07T01:51:29.603Z,16.33
2022-12-07T01:52:16.010Z,15.00
2022-12-07T01:52:50.869Z,15.93
2022-12-07T01:53:26.037Z,17.27
2022-12-07T01:53:58.522Z,13.57
2022-12-07T01:54:31.686Z,16.13
2022-12-07T01:55:05.985Z,17.98
2022-12-07T01:55:39.858Z,18.33
2022-12-07T01:56:15.629Z,16.38
2022-12-07T01:56:53.829Z,21.60
2022-12-07T01:57:26.187Z,19.40
2022-12-07T01:57:58.634Z,12.52
2022-12-07T01:58:31.163Z,19.45
2022-12-07T01:59:03.442Z,18.80
2022-12-07T01:59:36.322Z,14.88
2022-12-07T02:00:09.305Z,17.98
2022-12-07T02:00:47.948Z,17.30
2022-12-07T02:01:20.494Z,18.40
2022-12-07T02:01:54.014Z,16.48
2022-12-07T02:02:34.453Z,18.67
2022-12-07T02:03:09.543Z,12.95
2022-12-07T02:03:43.618Z,21.75
2022-12-07T02:04:16.352Z,15.98
2022-12-07T02:04:48.593Z,17.63
2022-12-07T02:05:21.052Z,16.00
2022-12-07T02:05:54.574Z,15.35
2022-12-07T02:06:27.052Z,17.08
2022-12-07T02:06:59.249Z,14.15
2022-12-07T02:07:32.154Z,17.30
2022-12-07T02:08:04.936Z,16.77
2022-12-07T02:08:37.258Z,14.52
2022-12-07T02:09:09.733Z,18.27
2022-12-07T02:09:42.066Z,15.38
2022-12-07T02:10:18.154Z,14.48
2022-12-07T02:10:50.343Z,18.38
2022-12-07T02:11:22.998Z,15.20
2022-12-07T02:11:56.196Z,16.55
2022-12-07T02:12:28.453Z,17.65
2022-12-07T02:13:05.624Z,11.82
2022-12-07T02:13:39.719Z,16.17
2022-12-07T02:14:12.175Z,17.88
2022-12-07T02:14:44.818Z,15.68
2022-12-07T02:15:17.816Z,16.13
2022-12-07T02:16:02.508Z,13.80
2022-12-07T02:16:58.207Z,17.08
2022-12-07T02:17:37.495Z,17.13
2022-12-07T02:18:26.666Z,8.95
2022-12-07T02:19:08.332Z,13.57
2022-12-07T02:19:50.280Z,14.60
2022-12-07T02:20:28.716Z,17.70
2022-12-07T02:21:14.209Z,17.60
2022-12-07T02:21:49.373Z,16.23
2022-12-07T02:22:36.849Z,16.65
2022-12-07T02:23:24.220Z,15.90
2022-12-07T02:24:08.598Z,14.90
2022-12-07T02:24:54.732Z,18.30
2022-12-07T02:25:42.124Z,14.98
2022-12-07T02:26:28.377Z,17.75
2022-12-07T02:27:17.860Z,18.67
2022-12-07T02:28:05.359Z,18.58
2022-12-07T02:28:46.529Z,12.75
2022-12-07T02:29:39.139Z,15.40
2022-12-07T02:30:13.041Z,14.25
2022-12-07T02:30:47.906Z,14.45
2022-12-07T02:31:22.761Z,16.80
2022-12-07T02:32:15.740Z,14.70
2022-12-07T02:33:20.660Z,11.55
2022-12-07T02:33:58.667Z,16.50
2022-12-07T02:34:40.188Z,19.15
2022-12-07T02:35:25.418Z,20.30
2022-12-07T02:35:57.761Z,17.75
2022-12-07T02:36:33.879Z,17.65
2022-12-07T02:37:10.743Z,19.10
2022-12-07T02:37:43.164Z,18.13
2022-12-07T02:38:15.408Z,16.60
2022-12-07T02:38:54.388Z,18.52
2022-12-07T02:39:38.587Z,21.60
2022-12-07T02:40:40.098Z,21.05
2022-12-07T02:41:26.132Z,19.52
2022-12-07T02:42:00.146Z,19.40
2022-12-07T02:42:36.571Z,16.25
2022-12-07T02:43:15.613Z,19.48
2022-12-07T02:43:52.196Z,15.23
2022-12-07T02:44:26.751Z,18.67
2022-12-07T02:44:59.894Z,16.23
2022-12-07T02:45:32.581Z,17.77
2022-12-07T02:46:09.657Z,16.67
2022-12-07T02:46:43.796Z,17.75
2022-12-07T02:47:18.329Z,15.73
2022-12-07T02:47:52.208Z,18.50
2022-12-07T02:48:24.483Z,15.50
2022-12-07T02:48:57.701Z,17.05
2022-12-07T02:49:31.353Z,13.75
2022-12-07T02:50:05.362Z,17.42
2022-12-07T02:50:37.710Z,18.05
2022-12-07T02:51:10.139Z,11.93
2022-12-07T02:51:43.799Z,18.30
2022-12-07T02:52:16.185Z,18.75
2022-12-07T02:52:48.515Z,19.50
2022-12-07T02:53:50.090Z,16.35
2022-12-07T02:54:22.642Z,16.83
2022-12-07T02:54:55.125Z,14.90
2022-12-07T02:55:30.228Z,17.08
2022-12-07T02:56:16.917Z,17.63
2022-12-07T02:56:51.205Z,17.85
2022-12-07T02:57:26.473Z,18.17
2022-12-07T02:58:13.589Z,15.48
2022-12-07T02:58:51.527Z,16.38
2022-12-07T02:59:42.436Z,16.05
2022-12-07T03:00:19.801Z,18.65
2022-12-07T03:01:09.267Z,18.08
2022-12-07T03:01:45.299Z,14.35
2022-12-07T03:02:23.924Z,15.82
2022-12-07T03:02:58.970Z,14.70
2022-12-07T03:03:32.007Z,15.27
2022-12-07T03:04:14.620Z,15.43
2022-12-07T03:05:05.594Z,11.40
2022-12-07T03:05:56.654Z,15.85
2022-12-07T03:06:31.705Z,15.93
2022-12-07T03:07:08.181Z,14.73
2022-12-07T03:07:52.928Z,15.93
2022-12-07T03:08:28.221Z,19.08
2022-12-07T03:09:19.882Z,14.50
2022-12-07T03:09:58.456Z,12.27
2022-12-07T03:10:41.451Z,16.52
2022-12-07T03:11:17.579Z,17.70
2022-12-07T03:11:58.320Z,12.90
2022-12-07T03:12:37.572Z,18.05
2022-12-07T03:13:25.205Z,16.88
2022-12-07T03:14:01.157Z,18.60
2022-12-07T03:14:36.761Z,19.60
2022-12-07T03:15:13.239Z,18.15
2022-12-07T03:15:48.469Z,17.30
2022-12-07T03:16:20.873Z,17.02
2022-12-07T03:16:53.666Z,16.80
2022-12-07T03:17:27.769Z,17.48
2022-12-07T03:18:00.722Z,12.68
2022-12-07T03:19:23.571Z,19.73
2022-12-07T03:19:58.244Z,18.83
2022-12-07T03:20:31.139Z,18.58
2022-12-07T03:21:05.994Z,18.67
2022-12-07T03:21:40.667Z,18.67
2022-12-07T03:22:14.210Z,17.00
2022-12-07T03:22:48.478Z,17.05
2022-12-07T03:23:21.976Z,18.38
2022-12-07T03:23:58.344Z,18.20
2022-12-07T03:24:36.940Z,18.98
2022-12-07T03:25:11.521Z,18.33
2022-12-07T03:25:46.806Z,16.05
2022-12-07T03:26:20.337Z,17.70
2022-12-07T03:26:54.167Z,14.25
2022-12-07T03:27:28.966Z,17.98
2022-12-07T03:28:03.952Z,16.42
2022-12-07T03:28:39.068Z,17.45
2022-12-07T03:29:20.945Z,16.85
2022-12-07T03:29:59.058Z,16.73
2022-12-07T03:30:38.208Z,18.48
2022-12-07T03:31:10.526Z,18.75
2022-12-07T03:31:45.398Z,17.38
2022-12-07T03:32:20.461Z,17.83
2022-12-07T03:33:01.235Z,12.10
2022-12-07T03:33:37.751Z,16.80
2022-12-07T03:34:16.258Z,16.75
2022-12-07T03:34:56.322Z,15.20
2022-12-07T03:36:20.951Z,14.77
2022-12-07T03:37:03.338Z,16.83
2022-12-07T03:37:37.675Z,14.68
2022-12-07T03:38:15.169Z,18.67
2022-12-07T03:38:51.391Z,17.88
2022-12-07T03:39:29.873Z,12.30
2022-12-07T03:40:05.267Z,19.10
2022-12-07T03:40:56.600Z,16.52
2022-12-07T03:41:31.512Z,18.35
2022-12-07T03:42:05.488Z,17.83
2022-12-07T03:42:37.776Z,18.63
2022-12-07T03:43:10.028Z,17.75
2022-12-07T03:43:42.670Z,19.42
2022-12-07T03:44:16.324Z,17.10
2022-12-07T03:44:48.842Z,14.68
2022-12-07T03:45:24.742Z,15.95
2022-12-07T03:46:15.687Z,16.40
2022-12-07T03:47:07.174Z,18.35
2022-12-07T03:47:47.663Z,13.98
2022-12-07T03:48:25.759Z,16.05
2022-12-07T03:49:06.168Z,19.25
2022-12-07T03:49:38.422Z,16.95
2022-12-07T03:50:17.779Z,16.67
2022-12-07T03:50:54.687Z,15.40
2022-12-07T03:51:27.186Z,14.10
2022-12-07T03:52:19.378Z,16.83
2022-12-07T03:52:57.018Z,18.08
2022-12-07T03:53:35.748Z,17.05
2022-12-07T03:54:08.367Z,16.92
2022-12-07T03:54:42.928Z,17.23
2022-12-07T03:55:15.407Z,17.23
2022-12-07T03:55:48.459Z,16.63
2022-12-07T03:56:21.854Z,15.93
2022-12-07T03:56:55.291Z,16.85
2022-12-07T03:57:28.909Z,16.10
2022-12-07T03:58:04.355Z,19.02
2022-12-07T03:58:37.146Z,16.50
2022-12-07T03:59:09.703Z,15.20
2022-12-07T03:59:42.798Z,15.70
2022-12-07T04:00:15.472Z,17.85
2022-12-07T04:00:48.137Z,18.67
2022-12-07T04:01:20.593Z,17.67
2022-12-07T04:01:57.481Z,19.58
2022-12-07T04:02:30.301Z,17.40
2022-12-07T04:03:02.892Z,18.10
2022-12-07T04:03:35.275Z,19.60
2022-12-07T04:04:07.566Z,17.40
2022-12-07T04:04:40.554Z,19.58
2022-12-07T04:05:13.121Z,16.00
2022-12-07T04:05:45.739Z,16.25
2022-12-07T04:06:18.432Z,15.57
2022-12-07T04:06:50.794Z,16.60
2022-12-07T04:07:23.087Z,17.25
2022-12-07T04:07:55.746Z,14.27
2022-12-07T04:08:28.116Z,15.18
2022-12-07T04:09:00.729Z,17.02
2022-12-07T04:09:33.104Z,15.10
2022-12-07T04:10:06.059Z,12.43
2022-12-07T04:10:38.583Z,13.82
2022-12-07T04:11:11.046Z,14.70
2022-12-07T04:11:43.585Z,13.70
2022-12-07T04:12:16.139Z,16.38
2022-12-07T04:12:48.564Z,14.52
2022-12-07T04:13:21.272Z,16.58
2022-12-07T04:14:12.274Z,13.07
2022-12-07T04:14:44.662Z,13.10
2022-12-07T04:15:16.987Z,13.02
2022-12-07T04:15:49.292Z,14.35
2022-12-07T04:16:21.797Z,14.13
2022-12-07T04:16:57.776Z,14.43
2022-12-07T04:17:30.451Z,12.38
2022-12-07T04:18:02.863Z,12.02
2022-12-07T04:18:35.093Z,9.70
2022-12-07T04:19:07.339Z,14.10
2022-12-07T04:19:39.821Z,12.15
2022-12-07T04:20:12.557Z,13.07
2022-12-07T04:20:44.982Z,13.75
2022-12-07T04:21:17.331Z,11.73
2022-12-07T04:21:49.633Z,13.00
2022-12-07T04:22:21.868Z,14.82
2022-12-07T04:22:54.510Z,11.63
2022-12-07T04:23:27.062Z,11.85
2022-12-07T04:23:59.416Z,13.55
2022-12-07T04:24:31.692Z,13.32
2022-12-07T04:25:04.156Z,13.57
2022-12-07T04:25:36.509Z,14.63
2022-12-07T04:26:12.655Z,18.95
2022-12-07T04:26:45.335Z,18.80
2022-12-07T04:27:17.815Z,15.88
2022-12-07T04:27:50.080Z,22.33
2022-12-07T04:28:22.514Z,26.02
2022-12-07T04:28:54.834Z,23.88
2022-12-07T04:29:28.295Z,21.73
2022-12-07T04:30:01.243Z,26.50
2022-12-07T04:30:34.209Z,27.30
2022-12-07T04:31:06.566Z,22.25
2022-12-07T04:31:39.282Z,17.45
2022-12-07T04:32:11.796Z,14.43
2022-12-07T04:32:44.069Z,13.13
2022-12-07T04:33:16.424Z,13.10
2022-12-07T04:33:48.689Z,14.77
2022-12-07T04:34:21.006Z,11.75
2022-12-07T04:34:55.822Z,15.85
2022-12-07T04:35:28.465Z,13.13
2022-12-07T04:36:00.953Z,16.30
2022-12-07T04:36:33.787Z,13.77
2022-12-07T04:37:06.128Z,16.27
2022-12-07T04:37:40.342Z,14.13
2022-12-07T04:38:12.594Z,13.32
2022-12-07T04:38:45.011Z,14.82
2022-12-07T04:39:20.186Z,15.25
2022-12-07T04:39:52.579Z,14.38
2022-12-07T04:40:25.055Z,13.68
2022-12-07T04:40:57.398Z,16.33
2022-12-07T04:41:29.875Z,15.43
2022-12-07T04:42:02.324Z,15.05
2022-12-07T04:42:34.583Z,13.70
2022-12-07T04:43:06.883Z,15.93
2022-12-07T04:43:39.242Z,16.15
2022-12-07T04:44:12.813Z,13.35
2022-12-07T04:44:45.787Z,15.77
2022-12-07T04:45:18.107Z,16.40
2022-12-07T04:45:50.507Z,13.40
2022-12-07T04:46:23.677Z,14.48
2022-12-07T04:46:56.630Z,13.60
2022-12-07T04:47:28.943Z,13.98
2022-12-07T04:48:01.538Z,16.30
2022-12-07T04:48:33.929Z,15.30
2022-12-07T04:49:06.619Z,16.70
2022-12-07T04:49:39.157Z,15.50
2022-12-07T04:50:11.698Z,13.73
2022-12-07T04:50:46.355Z,13.95
2022-12-07T04:51:23.414Z,14.73
2022-12-07T04:51:55.702Z,10.95
2022-12-07T04:52:28.344Z,12.88
2022-12-07T04:53:00.631Z,11.73
2022-12-07T04:53:33.108Z,12.35
2022-12-07T04:54:05.387Z,13.52
2022-12-07T04:54:37.682Z,11.25
2022-12-07T04:55:10.108Z,12.27
2022-12-07T04:55:43.150Z,11.27
2022-12-07T04:56:16.416Z,10.90
2022-12-07T04:56:48.878Z,11.68
2022-12-07T04:57:21.121Z,19.40
2022-12-07T04:57:53.547Z,38.10
2022-12-07T04:58:25.983Z,35.75
2022-12-07T04:58:58.253Z,24.77
2022-12-07T04:59:30.731Z,26.42
2022-12-07T05:00:03.734Z,24.73
2022-12-07T05:00:36.383Z,26.90
2022-12-07T05:01:08.713Z,48.95
2022-12-07T05:01:41.071Z,93.32
2022-12-07T05:02:13.530Z,87.10
2022-12-07T05:02:46.658Z,63.38
2022-12-07T05:03:19.704Z,39.63
2022-12-07T05:03:52.082Z,34.10
2022-12-07T05:04:24.364Z,33.25
2022-12-07T05:04:56.675Z,18.90
2022-12-07T05:05:28.941Z,23.83
2022-12-07T05:06:01.220Z,16.25
2022-12-07T05:06:33.704Z,15.45
2022-12-07T05:07:05.950Z,13.57
2022-12-07T05:07:38.367Z,19.67
2022-12-07T05:08:11.029Z,25.42
2022-12-07T05:08:44.346Z,24.52
2022-12-07T05:09:16.856Z,17.85
2022-12-07T05:09:49.175Z,19.63
2022-12-07T05:10:21.684Z,17.40
2022-12-07T05:10:54.709Z,18.38
2022-12-07T05:11:39.499Z,17.17
2022-12-07T05:12:11.876Z,13.32
2022-12-07T05:12:44.493Z,20.63
2022-12-07T05:13:17.143Z,17.48
2022-12-07T05:13:49.414Z,18.00
2022-12-07T05:14:22.537Z,13.75
2022-12-07T05:14:54.817Z,12.77
2022-12-07T05:15:53.077Z,12.73
2022-12-07T05:16:25.610Z,13.63
2022-12-07T05:16:57.963Z,13.20
2022-12-07T05:17:30.266Z,15.10
2022-12-07T05:18:02.735Z,12.57
2022-12-07T05:18:35.003Z,13.27
2022-12-07T05:19:07.928Z,12.82
2022-12-07T05:19:40.146Z,13.10
2022-12-07T05:20:12.857Z,11.75
2022-12-07T05:20:46.951Z,9.35
2022-12-07T05:21:19.385Z,11.40
2022-12-07T05:21:53.695Z,9.25
2022-12-07T05:22:29.317Z,12.10
2022-12-07T05:23:01.821Z,9.43
2022-12-07T05:23:34.142Z,9.77
2022-12-07T05:24:06.883Z,8.82
2022-12-07T05:24:39.338Z,7.93
2022-12-07T05:25:11.899Z,11.75
2022-12-07T05:25:44.249Z,9.73
2022-12-07T05:26:16.645Z,11.38
2022-12-07T05:26:48.982Z,11.13
2022-12-07T05:27:21.771Z,13.93
2022-12-07T05:27:55.763Z,10.25
2022-12-07T05:28:28.606Z,13.40
2022-12-07T05:29:01.412Z,12.15
2022-12-07T05:29:33.865Z,12.93
2022-12-07T05:30:06.551Z,12.27
2022-12-07T05:30:38.990Z,13.88
2022-12-07T05:31:12.010Z,15.10
2022-12-07T05:31:44.672Z,9.10
2022-12-07T05:32:17.305Z,12.63
2022-12-07T05:32:49.533Z,15.80
2022-12-07T05:33:22.401Z,12.98
2022-12-07T05:33:54.976Z,12.80
2022-12-07T05:34:27.367Z,12.05
2022-12-07T05:34:59.721Z,14.07
2022-12-07T05:35:32.162Z,16.67
2022-12-07T05:36:06.748Z,12.35
2022-12-07T05:36:39.056Z,16.63
2022-12-07T05:37:11.457Z,14.43
2022-12-07T05:37:44.015Z,13.18
2022-12-07T05:38:16.451Z,15.60
2022-12-07T05:38:48.873Z,16.92
2022-12-07T05:39:21.185Z,15.40
2022-12-07T05:39:53.450Z,15.98
2022-12-07T05:40:25.900Z,13.05
2022-12-07T05:41:02.447Z,11.13
2022-12-07T05:41:53.033Z,16.63
2022-12-07T05:42:25.464Z,13.98
2022-12-07T05:43:02.664Z,11.73
2022-12-07T05:43:36.847Z,16.17
2022-12-07T05:44:09.357Z,14.85
2022-12-07T05:44:42.305Z,13.68
2022-12-07T05:45:14.583Z,16.05
2022-12-07T05:45:46.957Z,14.88
2022-12-07T05:46:19.357Z,14.25
2022-12-07T05:46:52.061Z,15.68
2022-12-07T05:47:24.323Z,13.80
2022-12-07T05:47:56.596Z,13.57
2022-12-07T05:48:29.066Z,17.23
2022-12-07T05:49:01.537Z,13.40
2022-12-07T05:49:33.837Z,15.05
2022-12-07T05:50:06.829Z,14.98
2022-12-07T05:50:39.410Z,13.50
2022-12-07T05:51:11.725Z,13.73
2022-12-07T05:51:44.227Z,16.38
2022-12-07T05:52:16.673Z,17.02
2022-12-07T05:52:49.109Z,19.70
2022-12-07T05:53:23.480Z,14.57
2022-12-07T05:53:56.120Z,16.05
2022-12-07T05:54:28.464Z,15.65
2022-12-07T05:55:00.814Z,16.23
2022-12-07T05:55:34.102Z,15.98
2022-12-07T05:56:06.734Z,17.25
2022-12-07T05:56:39.168Z,13.77
2022-12-07T05:57:11.718Z,17.40
2022-12-07T05:58:06.844Z,17.10
2022-12-07T05:58:57.538Z,14.02
2022-12-07T05:59:30.299Z,15.25
2022-12-07T06:00:03.033Z,17.35
2022-12-07T06:00:49.416Z,15.63
2022-12-07T06:01:23.312Z,15.52
2022-12-07T06:01:57.621Z,15.90
2022-12-07T06:02:30.304Z,16.35
2022-12-07T06:03:02.764Z,17.40
2022-12-07T06:03:35.189Z,15.30
2022-12-07T06:04:07.711Z,13.88
2022-12-07T06:04:41.395Z,15.57
2022-12-07T06:05:13.660Z,18.65
2022-12-07T06:05:46.255Z,17.67
2022-12-07T06:06:18.680Z,16.85
2022-12-07T06:06:51.750Z,15.60
2022-12-07T06:07:24.237Z,15.05
2022-12-07T06:07:59.189Z,14.57
2022-12-07T06:08:34.950Z,18.38
2022-12-07T06:09:07.461Z,14.55
2022-12-07T06:09:40.175Z,14.25
2022-12-07T06:10:12.430Z,16.27
2022-12-07T06:10:44.699Z,16.48
2022-12-07T06:11:35.136Z,13.90
2022-12-07T06:12:26.126Z,14.10
2022-12-07T06:12:58.614Z,13.10
2022-12-07T06:13:30.905Z,13.32
2022-12-07T06:14:04.181Z,15.77
2022-12-07T06:14:36.682Z,13.77
2022-12-07T06:15:09.693Z,14.82
2022-12-07T06:15:42.356Z,15.52
2022-12-07T06:16:14.649Z,15.05
2022-12-07T06:16:47.349Z,16.35
2022-12-07T06:17:19.901Z,13.05
2022-12-07T06:17:52.431Z,13.38
2022-12-07T06:18:24.922Z,14.75
2022-12-07T06:18:57.449Z,15.73
2022-12-07T06:19:29.903Z,14.45
2022-12-07T06:20:02.626Z,12.90
2022-12-07T06:20:35.382Z,16.10
2022-12-07T06:21:07.733Z,15.60
2022-12-07T06:21:40.105Z,15.65
2022-12-07T06:22:13.084Z,15.13
2022-12-07T06:22:45.341Z,15.30
2022-12-07T06:23:17.684Z,15.32
2022-12-07T06:23:50.327Z,12.85
2022-12-07T06:24:22.806Z,14.23
2022-12-07T06:24:55.160Z,14.70
2022-12-07T06:25:27.550Z,14.45
2022-12-07T06:25:59.859Z,15.23
2022-12-07T06:26:32.152Z,11.63
2022-12-07T06:27:04.869Z,13.95
2022-12-07T06:27:37.314Z,12.77
2022-12-07T06:28:09.701Z,14.27
2022-12-07T06:28:42.394Z,14.60
2022-12-07T06:29:15.002Z,12.32
2022-12-07T06:29:47.369Z,13.38
2022-12-07T06:30:19.698Z,11.77
2022-12-07T06:30:59.074Z,13.70
2022-12-07T06:31:31.630Z,11.25
2022-12-07T06:32:04.517Z,13.63
2022-12-07T06:32:37.922Z,10.77
2022-12-07T06:33:10.185Z,13.65
2022-12-07T06:33:42.686Z,9.88
2022-12-07T06:34:16.277Z,8.13
2022-12-07T06:34:48.840Z,10.77
2022-12-07T06:35:21.093Z,12.02
2022-12-07T06:35:53.838Z,13.05
2022-12-07T06:36:27.383Z,13.75
2022-12-07T06:36:59.789Z,12.68
2022-12-07T06:37:32.063Z,11.02
2022-12-07T06:38:07.817Z,12.27
2022-12-07T06:38:40.775Z,13.45
2022-12-07T06:39:13.154Z,12.40
2022-12-07T06:39:46.318Z,12.82
2022-12-07T06:40:18.707Z,13.98
2022-12-07T06:40:51.012Z,14.82
2022-12-07T06:41:23.478Z,13.65
2022-12-07T06:41:55.932Z,12.57
2022-12-07T06:42:28.201Z,10.73
2022-12-07T06:43:01.814Z,11.00
2022-12-07T06:43:34.234Z,8.65
2022-12-07T06:44:06.984Z,12.60
2022-12-07T06:44:39.218Z,10.65
2022-12-07T06:45:11.646Z,10.95
2022-12-07T06:45:44.059Z,11.85
2022-12-07T06:46:16.640Z,13.15
2022-12-07T06:46:49.227Z,10.15
2022-12-07T06:48:13.757Z,9.55
2022-12-07T06:48:46.351Z,10.25
2022-12-07T06:49:18.815Z,11.85
2022-12-07T06:49:51.050Z,11.75
2022-12-07T06:50:23.302Z,13.18
2022-12-07T06:50:56.060Z,11.38
2022-12-07T06:51:28.398Z,9.93
2022-12-07T06:52:00.838Z,12.23
2022-12-07T06:52:33.092Z,9.52
2022-12-07T06:53:05.743Z,11.65
2022-12-07T06:53:38.526Z,9.38
2022-12-07T06:54:14.452Z,7.43
2022-12-07T06:54:46.845Z,8.98
2022-12-07T06:55:19.449Z,9.98
2022-12-07T06:55:51.819Z,10.95
2022-12-07T06:56:24.407Z,8.43
2022-12-07T06:56:56.886Z,10.27
2022-12-07T06:57:29.150Z,11.48
2022-12-07T06:58:02.909Z,9.70
2022-12-07T06:58:35.355Z,11.57
2022-12-07T06:59:07.758Z,11.25
2022-12-07T06:59:40.007Z,10.82
2022-12-07T07:00:16.989Z,10.85
2022-12-07T07:00:53.767Z,11.40
2022-12-07T07:01:26.634Z,9.98
2022-12-07T07:01:59.249Z,8.75
2022-12-07T07:02:31.684Z,11.93
2022-12-07T07:03:04.174Z,10.38
2022-12-07T07:03:36.432Z,10.43
2022-12-07T07:04:08.899Z,10.07
2022-12-07T07:04:41.200Z,10.02
2022-12-07T07:05:13.588Z,13.73
2022-12-07T07:05:46.089Z,12.25
2022-12-07T07:06:18.642Z,13.07
2022-12-07T07:06:55.253Z,10.15
2022-12-07T07:07:30.764Z,10.50
2022-12-07T07:08:56.086Z,9.70
2022-12-07T07:09:28.858Z,12.15
2022-12-07T07:10:01.450Z,14.05
2022-12-07T07:10:34.364Z,11.27
2022-12-07T07:11:07.641Z,9.88
2022-12-07T07:11:39.908Z,11.35
2022-12-07T07:12:12.383Z,11.00
2022-12-07T07:12:45.145Z,10.68
2022-12-07T07:13:17.512Z,13.98
2022-12-07T07:13:49.900Z,10.07
2022-12-07T07:14:23.061Z,12.82
2022-12-07T07:14:55.581Z,10.70
2022-12-07T07:15:27.933Z,11.52
2022-12-07T07:16:00.327Z,14.52
2022-12-07T07:16:32.754Z,6.95
2022-12-07T07:17:05.569Z,13.05
2022-12-07T07:17:37.930Z,15.60
2022-12-07T07:18:10.251Z,14.48
2022-12-07T07:18:42.634Z,14.10
2022-12-07T07:19:15.056Z,16.55
2022-12-07T07:19:47.374Z,18.85
2022-12-07T07:20:19.736Z,15.77
2022-12-07T07:20:56.775Z,15.65
2022-12-07T07:21:29.018Z,18.17
2022-12-07T07:22:01.388Z,16.85
2022-12-07T07:22:33.932Z,14.82
2022-12-07T07:23:06.775Z,11.68
2022-12-07T07:23:39.161Z,10.10
2022-12-07T07:24:11.453Z,12.95
2022-12-07T07:24:43.783Z,11.32
2022-12-07T07:25:16.391Z,11.68
2022-12-07T07:25:48.788Z,12.43
2022-12-07T07:26:23.335Z,10.88
2022-12-07T07:26:55.912Z,10.40
2022-12-07T07:27:28.326Z,9.63